createdAt,value
2017-11-07T00:00:10.961Z,89.28
2017-11-07T00:01:21.522Z,89.38
2017-11-07T00:02:32.028Z,89.47
2017-11-07T00:03:42.499Z,89.76
2017-11-07T00:04:52.957Z,89.95
2017-11-07T00:06:03.398Z,89.95
2017-11-07T00:07:13.872Z,89.95
2017-11-07T00:08:24.344Z,89.95
2017-11-07T00:09:34.792Z,89.67
2017-11-07T00:10:45.048Z,89.95
2017-11-07T00:11:55.524Z,89.95
2017-11-07T00:13:06.090Z,90.33
2017-11-07T00:14:16.537Z,89.95
2017-11-07T00:15:27.172Z,89.95
2017-11-07T00:16:37.617Z,90.14
2017-11-07T00:17:47.786Z,89.86
2017-11-07T00:18:58.275Z,89.76
2017-11-07T00:20:08.715Z,89.47
2017-11-07T00:21:19.240Z,89.57
2017-11-07T00:22:29.716Z,89.67
2017-11-07T00:23:40.169Z,89.47
2017-11-07T00:24:50.651Z,89.57
2017-11-07T00:26:02.083Z,89.38
2017-11-07T00:27:12.561Z,90.14
2017-11-07T00:28:23.056Z,89.95
2017-11-07T00:29:33.521Z,90.14
2017-11-07T00:30:43.963Z,89.76
2017-11-07T00:31:54.603Z,90.52
2017-11-07T00:33:05.057Z,89.95
2017-11-07T00:34:15.220Z,90.05
2017-11-07T00:35:25.250Z,90.52
2017-11-07T00:36:35.805Z,90.33
2017-11-07T00:37:46.264Z,90.14
2017-11-07T00:38:56.788Z,90.71
2017-11-07T00:40:07.237Z,90.71
2017-11-07T00:41:17.665Z,90.14
2017-11-07T00:42:28.088Z,90.71
2017-11-07T00:43:38.222Z,91.09
2017-11-07T00:44:48.663Z,90.71
2017-11-07T00:45:59.199Z,90.8
2017-11-07T00:47:09.773Z,91.28
2017-11-07T00:48:20.248Z,91.19
2017-11-07T00:49:30.704Z,90.8
2017-11-07T00:50:41.134Z,90.8
2017-11-07T00:51:51.259Z,90.14
2017-11-07T00:53:01.396Z,90.9
2017-11-07T00:54:11.826Z,90.71
2017-11-07T00:55:22.458Z,90.42
2017-11-07T00:56:33.090Z,90.33
2017-11-07T00:57:43.676Z,90.52
2017-11-07T00:58:54.098Z,90.52
2017-11-07T01:00:04.221Z,90.8
2017-11-07T01:01:14.686Z,90.52
2017-11-07T01:02:25.249Z,90.42
2017-11-07T01:03:35.072Z,90.23
2017-11-07T01:04:45.103Z,89.76
2017-11-07T01:05:55.523Z,90.42
2017-11-07T01:07:05.664Z,90.42
2017-11-07T01:08:16.130Z,90.42
2017-11-07T01:09:26.264Z,89.95
2017-11-07T01:10:36.764Z,90.33
2017-11-07T01:11:47.213Z,90.05
2017-11-07T01:12:57.375Z,89.95
2017-11-07T01:14:07.924Z,90.23
2017-11-07T01:15:18.604Z,90.42
2017-11-07T01:16:29.057Z,90.14
2017-11-07T01:17:39.540Z,90.14
2017-11-07T01:18:49.965Z,90.23
2017-11-07T01:20:00.535Z,90.8
2017-11-07T01:21:10.959Z,90.61
2017-11-07T01:22:21.452Z,90.05
2017-11-07T01:23:31.482Z,89.95
2017-11-07T01:24:41.931Z,89.76
2017-11-07T01:25:52.387Z,89.67
2017-11-07T01:27:02.838Z,89.76
2017-11-07T01:28:13.279Z,89.57
2017-11-07T01:29:23.800Z,89.95
2017-11-07T01:30:33.922Z,89.95
2017-11-07T01:31:44.049Z,90.05
2017-11-07T01:32:54.486Z,89.86
2017-11-07T01:34:04.953Z,89.76
2017-11-07T01:35:15.432Z,89.76
2017-11-07T01:36:25.918Z,89.95
2017-11-07T01:37:36.549Z,89.76
2017-11-07T01:38:47.036Z,90.05
2017-11-07T01:39:57.187Z,90.05
2017-11-07T01:41:07.635Z,90.05
2017-11-07T01:42:18.090Z,89.95
2017-11-07T01:43:28.227Z,89.95
2017-11-07T01:44:38.682Z,90.14
2017-11-07T01:45:49.140Z,90.14
2017-11-07T01:46:59.579Z,89.95
2017-11-07T01:48:10.058Z,89.67
2017-11-07T01:49:20.498Z,89.95
2017-11-07T01:50:30.925Z,90.42
2017-11-07T01:51:41.466Z,90.52
2017-11-07T01:52:51.913Z,90.33
2017-11-07T01:54:02.343Z,89.86
2017-11-07T01:55:12.792Z,89.95
2017-11-07T01:56:23.240Z,90.14
2017-11-07T01:57:33.387Z,89.95
2017-11-07T01:58:43.492Z,89.76
2017-11-07T01:59:54.225Z,90.23
2017-11-07T02:01:04.682Z,90.14
2017-11-07T02:02:14.691Z,89.86
2017-11-07T02:03:25.124Z,90.23
2017-11-07T02:04:35.554Z,90.23
2017-11-07T02:05:46.029Z,89.76
2017-11-07T02:06:56.179Z,89.57
2017-11-07T02:08:06.362Z,90.05
2017-11-07T02:09:16.846Z,89.76
2017-11-07T02:10:27.307Z,89.86
2017-11-07T02:11:37.440Z,89.95
2017-11-07T02:12:47.877Z,90.14
2017-11-07T02:13:58.012Z,89.95
2017-11-07T02:15:08.468Z,89.76
2017-11-07T02:16:18.587Z,90.14
2017-11-07T02:17:28.385Z,89.76
2017-11-07T02:18:38.827Z,90.14
2017-11-07T02:19:49.255Z,90.05
2017-11-07T02:20:59.938Z,90.14
2017-11-07T02:22:10.387Z,90.14
2017-11-07T02:23:20.824Z,90.42
2017-11-07T02:24:31.246Z,90.52
2017-11-07T02:25:41.769Z,90.42
2017-11-07T02:26:52.240Z,90.05
2017-11-07T02:28:02.698Z,90.52
2017-11-07T02:29:13.128Z,90.33
2017-11-07T02:30:23.669Z,90.33
2017-11-07T02:31:34.169Z,90.8
2017-11-07T02:32:44.317Z,90.8
2017-11-07T02:33:54.775Z,90.71
2017-11-07T02:35:05.231Z,90.71
2017-11-07T02:36:15.741Z,90.71
2017-11-07T02:37:26.266Z,90.71
2017-11-07T02:38:36.703Z,91.19
2017-11-07T02:39:47.363Z,91.09
2017-11-07T02:40:57.863Z,91.38
2017-11-07T02:42:08.060Z,90.8
2017-11-07T02:43:18.225Z,90.8
2017-11-07T02:44:28.660Z,90.61
2017-11-07T02:45:38.797Z,90.9
2017-11-07T02:46:49.239Z,90.71
2017-11-07T02:47:59.673Z,90.99
2017-11-07T02:49:10.187Z,90.9
2017-11-07T02:50:20.665Z,90.9
2017-11-07T02:51:30.789Z,90.71
2017-11-07T02:52:41.277Z,90.23
2017-11-07T02:53:51.357Z,90.23
2017-11-07T02:55:01.792Z,90.05
2017-11-07T02:56:12.345Z,90.14
2017-11-07T02:57:22.776Z,89.86
2017-11-07T02:58:33.230Z,90.05
2017-11-07T02:59:43.693Z,90.05
2017-11-07T03:00:54.235Z,89.95
2017-11-07T03:02:04.678Z,89.38
2017-11-07T03:03:14.812Z,89.95
2017-11-07T03:04:25.347Z,89.76
2017-11-07T03:05:35.800Z,89.67
2017-11-07T03:06:46.321Z,90
2017-11-07T03:07:56.372Z,89.52
2017-11-07T03:09:06.824Z,89.28
2017-11-07T03:10:17.280Z,89.33
2017-11-07T03:11:27.314Z,89.57
2017-11-07T03:12:37.790Z,89.61
2017-11-07T03:13:48.233Z,89.52
2017-11-07T03:14:58.337Z,89.23
2017-11-07T03:16:08.775Z,89.47
2017-11-07T03:17:19.425Z,89.71
2017-11-07T03:18:29.567Z,89.23
2017-11-07T03:19:40.055Z,88.95
2017-11-07T03:20:50.481Z,88.9
2017-11-07T03:22:00.905Z,89.28
2017-11-07T03:23:11.746Z,89.19
2017-11-07T03:24:22.200Z,89.19
2017-11-07T03:25:32.760Z,89.33
2017-11-07T03:26:42.799Z,89.52
2017-11-07T03:27:52.958Z,89.23
2017-11-07T03:29:03.445Z,89.14
2017-11-07T03:30:13.602Z,88.95
2017-11-07T03:31:24.033Z,89.04
2017-11-07T03:32:34.493Z,88.9
2017-11-07T03:33:44.517Z,89.33
2017-11-07T03:34:54.954Z,88.95
2017-11-07T03:36:05.485Z,89
2017-11-07T03:37:16.019Z,88.9
2017-11-07T03:38:26.122Z,88.71
2017-11-07T03:39:36.560Z,89
2017-11-07T03:40:46.997Z,89.09
2017-11-07T03:41:57.470Z,89.19
2017-11-07T03:43:07.901Z,89.47
2017-11-07T03:44:18.361Z,89
2017-11-07T03:45:28.823Z,89.19
2017-11-07T03:46:39.297Z,89.19
2017-11-07T03:47:49.750Z,89.19
2017-11-07T03:49:00.215Z,89.19
2017-11-07T03:50:10.902Z,88.9
2017-11-07T03:51:21.364Z,89.19
2017-11-07T03:52:31.824Z,88.9
2017-11-07T03:53:42.415Z,89.09
2017-11-07T03:54:52.855Z,88.62
2017-11-07T03:56:03.321Z,88.34
2017-11-07T03:57:13.784Z,89.09
2017-11-07T03:58:24.235Z,89.38
2017-11-07T03:59:34.358Z,89.09
2017-11-07T04:00:44.790Z,89.09
2017-11-07T04:01:54.902Z,89.09
2017-11-07T04:03:05.012Z,88.9
2017-11-07T04:04:15.470Z,89.28
2017-11-07T04:05:25.938Z,89.28
2017-11-07T04:06:36.484Z,89.19
2017-11-07T04:07:46.955Z,89.19
2017-11-07T04:08:57.520Z,88.9
2017-11-07T04:10:08.019Z,88.71
2017-11-07T04:11:18.487Z,89.09
2017-11-07T04:12:28.909Z,89.38
2017-11-07T04:13:39.338Z,89.28
2017-11-07T04:14:49.785Z,89.67
2017-11-07T04:16:00.290Z,89.38
2017-11-07T04:17:10.757Z,89.76
2017-11-07T04:18:21.190Z,90.23
2017-11-07T04:19:32.122Z,89.86
2017-11-07T04:20:42.552Z,89.76
2017-11-07T04:21:52.992Z,90.33
2017-11-07T04:23:03.461Z,90.05
2017-11-07T04:24:13.973Z,90.71
2017-11-07T04:25:24.436Z,90.33
2017-11-07T04:26:34.568Z,90.52
2017-11-07T04:27:45.004Z,90.42
2017-11-07T04:28:55.039Z,89.95
2017-11-07T04:30:05.468Z,90.05
2017-11-07T04:31:15.936Z,89.86
2017-11-07T04:32:26.353Z,90.42
2017-11-07T04:33:36.813Z,90.14
2017-11-07T04:34:47.249Z,90.33
2017-11-07T04:35:57.937Z,90.23
2017-11-07T04:37:08.430Z,90.05
2017-11-07T04:38:18.269Z,90.33
2017-11-07T04:39:28.498Z,90.42
2017-11-07T04:40:38.932Z,90.14
2017-11-07T04:41:49.399Z,90.23
2017-11-07T04:42:59.855Z,90.23
2017-11-07T04:44:10.317Z,90.23
2017-11-07T04:45:20.782Z,90.42
2017-11-07T04:46:30.893Z,90.14
2017-11-07T04:47:41.359Z,89.95
2017-11-07T04:48:51.486Z,90.61
2017-11-07T04:50:01.974Z,90.42
2017-11-07T04:51:12.409Z,90.33
2017-11-07T04:52:22.878Z,90.52
2017-11-07T04:53:33.302Z,90.42
2017-11-07T04:54:43.639Z,89.95
2017-11-07T04:55:54.103Z,89.95
2017-11-07T04:57:04.552Z,90.23
2017-11-07T04:58:15.027Z,90.14
2017-11-07T04:59:25.459Z,90.23
2017-11-07T05:00:35.906Z,90.33
2017-11-07T05:01:46.337Z,90.33
2017-11-07T05:02:56.876Z,90.05
2017-11-07T05:04:07.307Z,89.86
2017-11-07T05:05:17.769Z,90.33
2017-11-07T05:06:28.215Z,89.95
2017-11-07T05:07:38.256Z,90.14
2017-11-07T05:08:48.685Z,89.76
2017-11-07T05:09:58.824Z,90.14
2017-11-07T05:11:09.421Z,89.95
2017-11-07T05:12:19.879Z,89.95
2017-11-07T05:13:30.311Z,90.14
2017-11-07T05:14:40.793Z,90.42
2017-11-07T05:15:51.294Z,90.42
2017-11-07T05:17:01.543Z,90.9
2017-11-07T05:18:11.568Z,90.8
2017-11-07T05:19:22.090Z,90.61
2017-11-07T05:20:32.666Z,90.71
2017-11-07T05:21:43.305Z,90.8
2017-11-07T05:22:53.753Z,90.71
2017-11-07T05:24:04.235Z,90.8
2017-11-07T05:25:14.462Z,90.99
2017-11-07T05:26:24.913Z,90.71
2017-11-07T05:27:35.036Z,90.8
2017-11-07T05:28:45.226Z,90.71
2017-11-07T05:29:55.710Z,90.8
2017-11-07T05:31:06.402Z,90.71
2017-11-07T05:32:16.840Z,90.42
2017-11-07T05:33:27.549Z,90.52
2017-11-07T05:34:38.042Z,90.99
2017-11-07T05:35:48.481Z,90.9
2017-11-07T05:36:59.037Z,90.71
2017-11-07T05:38:09.459Z,90.8
2017-11-07T05:39:19.933Z,90.42
2017-11-07T05:40:30.071Z,91.19
2017-11-07T05:41:40.501Z,90.8
2017-11-07T05:42:50.949Z,90.52
2017-11-07T05:44:01.477Z,90.71
2017-11-07T05:45:11.956Z,90.9
2017-11-07T05:46:22.416Z,90.99
2017-11-07T05:47:32.848Z,90.99
2017-11-07T05:48:43.308Z,90.99
2017-11-07T05:49:53.744Z,90.9
2017-11-07T05:51:04.197Z,90.61
2017-11-07T05:52:14.326Z,90.71
2017-11-07T05:53:24.773Z,90.8
2017-11-07T05:54:35.256Z,90.8
2017-11-07T05:55:45.366Z,90.9
2017-11-07T05:56:55.828Z,91.09
2017-11-07T05:58:06.493Z,90.99
2017-11-07T05:59:16.975Z,90.8
2017-11-07T06:00:27.578Z,90.99
2017-11-07T06:01:38.038Z,90.9
2017-11-07T06:02:48.507Z,90.05
2017-11-07T06:03:59.062Z,90.23
2017-11-07T06:05:09.714Z,90.52
2017-11-07T06:06:20.146Z,90.9
2017-11-07T06:07:30.679Z,90.33
2017-11-07T06:08:41.151Z,90.33
2017-11-07T06:09:51.720Z,90.9
2017-11-07T06:11:02.147Z,90.61
2017-11-07T06:12:12.663Z,90.61
2017-11-07T06:13:22.489Z,90.61
2017-11-07T06:14:33.005Z,90.61
2017-11-07T06:15:43.431Z,90.8
2017-11-07T06:16:53.643Z,90.9
2017-11-07T06:18:04.141Z,90.8
2017-11-07T06:19:14.591Z,90.71
2017-11-07T06:20:25.149Z,90.99
2017-11-07T06:21:35.571Z,90.61
2017-11-07T06:22:46.018Z,91.09
2017-11-07T06:23:56.468Z,90.9
2017-11-07T06:25:06.580Z,90.71
2017-11-07T06:26:17.999Z,90.71
2017-11-07T06:27:28.509Z,90.9
2017-11-07T06:28:38.971Z,90.61
2017-11-07T06:29:49.456Z,90.9
2017-11-07T06:30:59.915Z,90.8
2017-11-07T06:32:10.038Z,90.33
2017-11-07T06:33:20.666Z,90.14
2017-11-07T06:34:30.790Z,90.71
2017-11-07T06:35:41.256Z,90.61
2017-11-07T06:36:51.213Z,90.8
2017-11-07T06:38:01.403Z,90.52
2017-11-07T06:39:11.859Z,90.9
2017-11-07T06:40:22.315Z,90.8
2017-11-07T06:41:32.789Z,90.52
2017-11-07T06:42:43.313Z,90.42
2017-11-07T06:43:53.488Z,90.33
2017-11-07T06:45:03.670Z,90.05
2017-11-07T06:46:14.094Z,90.05
2017-11-07T06:47:24.626Z,90.14
2017-11-07T06:48:35.092Z,90.05
2017-11-07T06:49:45.662Z,90.05
2017-11-07T06:50:56.104Z,90.05
2017-11-07T06:52:06.570Z,89.95
2017-11-07T06:53:17.051Z,89.86
2017-11-07T06:54:27.555Z,90.52
2017-11-07T06:55:37.995Z,90.33
2017-11-07T06:56:48.025Z,90.14
2017-11-07T06:57:58.461Z,90.23
2017-11-07T06:59:08.919Z,89.86
2017-11-07T07:00:19.520Z,89.86
2017-11-07T07:01:29.949Z,90.23
2017-11-07T07:02:40.314Z,90.23
2017-11-07T07:03:50.790Z,90.33
2017-11-07T07:05:02.238Z,90.23
2017-11-07T07:06:12.677Z,90.33
2017-11-07T07:07:23.120Z,90.33
2017-11-07T07:08:33.621Z,90.42
2017-11-07T07:09:44.066Z,90.05
2017-11-07T07:10:54.509Z,90.23
2017-11-07T07:12:04.630Z,90.52
2017-11-07T07:13:15.113Z,90.52
2017-11-07T07:14:25.560Z,90.14
2017-11-07T07:15:36.225Z,90.33
2017-11-07T07:16:46.741Z,90.33
2017-11-07T07:17:57.194Z,90.05
2017-11-07T07:19:07.640Z,89.86
2017-11-07T07:20:18.175Z,90.23
2017-11-07T07:21:28.670Z,90.23
2017-11-07T07:22:39.138Z,89.95
2017-11-07T07:23:49.588Z,90.42
2017-11-07T07:25:00.076Z,90.42
2017-11-07T07:26:10.599Z,90.14
2017-11-07T07:27:21.237Z,90.23
2017-11-07T07:28:31.715Z,90.71
2017-11-07T07:29:42.217Z,90.9
2017-11-07T07:30:52.667Z,90.71
2017-11-07T07:32:03.102Z,90.71
2017-11-07T07:33:13.550Z,90.8
2017-11-07T07:34:24.015Z,90.8
2017-11-07T07:35:34.465Z,91.28
2017-11-07T07:36:44.929Z,90.9
2017-11-07T07:37:55.467Z,90.99
2017-11-07T07:39:05.910Z,90.8
2017-11-07T07:40:16.374Z,90.9
2017-11-07T07:41:26.819Z,90.61
2017-11-07T07:42:37.293Z,90.61
2017-11-07T07:43:47.734Z,90.61
2017-11-07T07:44:58.207Z,90.8
2017-11-07T07:46:08.672Z,90.61
2017-11-07T07:47:19.174Z,90.71
2017-11-07T07:48:29.639Z,90.9
2017-11-07T07:49:40.111Z,90.71
2017-11-07T07:50:51.522Z,90.42
2017-11-07T07:52:01.988Z,90.52
2017-11-07T07:53:12.551Z,90.71
2017-11-07T07:54:22.984Z,90.52
2017-11-07T07:55:33.580Z,90.9
2017-11-07T07:56:44.010Z,90.33
2017-11-07T07:57:54.701Z,90.8
2017-11-07T07:59:05.298Z,90.33
2017-11-07T08:00:15.745Z,90.33
2017-11-07T08:01:25.771Z,90.61
2017-11-07T08:02:36.280Z,90.99
2017-11-07T08:03:46.305Z,90.9
2017-11-07T08:04:56.802Z,90.66
2017-11-07T08:06:06.950Z,91.04
2017-11-07T08:07:17.409Z,90.56
2017-11-07T08:08:27.981Z,91.04
2017-11-07T08:09:38.422Z,90.47
2017-11-07T08:10:48.961Z,90.19
2017-11-07T08:11:59.611Z,90.37
2017-11-07T08:13:09.835Z,90.28
2017-11-07T08:14:20.319Z,90.19
2017-11-07T08:15:30.784Z,90.75
2017-11-07T08:16:40.936Z,90.75
2017-11-07T08:17:51.090Z,91.13
2017-11-07T08:19:01.243Z,91.09
2017-11-07T08:20:11.680Z,90.94
2017-11-07T08:21:21.814Z,91.23
2017-11-07T08:22:32.292Z,91.13
2017-11-07T08:23:42.793Z,90.66
2017-11-07T08:24:52.512Z,90.94
2017-11-07T08:26:02.940Z,90.94
2017-11-07T08:27:13.516Z,90.94
2017-11-07T08:28:24.990Z,90.66
2017-11-07T08:29:35.550Z,90.66
2017-11-07T08:30:45.680Z,90.56
2017-11-07T08:31:56.123Z,90.28
2017-11-07T08:33:06.639Z,90.37
2017-11-07T08:34:17.203Z,90.19
2017-11-07T08:35:27.661Z,89.9
2017-11-07T08:36:38.210Z,89.8
2017-11-07T08:37:48.402Z,90
2017-11-07T08:38:58.930Z,89.8
2017-11-07T08:40:09.413Z,89.71
2017-11-07T08:41:19.894Z,89.8
2017-11-07T08:42:30.939Z,89.42
2017-11-07T08:43:41.564Z,89.42
2017-11-07T08:44:52.050Z,89.71
2017-11-07T08:46:02.616Z,89.42
2017-11-07T08:47:12.686Z,90.09
2017-11-07T08:48:23.124Z,89.8
2017-11-07T08:49:33.608Z,89.9
2017-11-07T08:50:44.048Z,90.09
2017-11-07T08:51:54.217Z,90.09
2017-11-07T08:53:04.669Z,90
2017-11-07T08:54:15.109Z,90
2017-11-07T08:55:25.621Z,89.61
2017-11-07T08:56:35.874Z,89.9
2017-11-07T08:57:46.321Z,89.8
2017-11-07T08:58:56.796Z,89.8
2017-11-07T09:00:07.242Z,89.85
2017-11-07T09:01:17.745Z,90.09
2017-11-07T09:02:28.199Z,90.04
2017-11-07T09:03:38.699Z,89.37
2017-11-07T09:04:50.145Z,89.56
2017-11-07T09:06:00.605Z,89.18
2017-11-07T09:07:11.066Z,88.9
2017-11-07T09:08:21.546Z,89
2017-11-07T09:09:32.048Z,89
2017-11-07T09:10:43.448Z,88.71
2017-11-07T09:11:53.897Z,89.18
2017-11-07T09:13:04.517Z,89
2017-11-07T09:14:15.099Z,89.37
2017-11-07T09:15:25.618Z,89.37
2017-11-07T09:16:36.097Z,89
2017-11-07T09:17:46.552Z,88.8
2017-11-07T09:18:57.017Z,88.23
2017-11-07T09:20:07.472Z,88.33
2017-11-07T09:21:17.941Z,88.42
2017-11-07T09:22:28.422Z,88.23
2017-11-07T09:23:38.939Z,88.52
2017-11-07T09:24:49.392Z,88.52
2017-11-07T09:25:59.834Z,88.42
2017-11-07T09:27:09.965Z,88.13
2017-11-07T09:28:20.446Z,88.04
2017-11-07T09:29:30.463Z,88.13
2017-11-07T09:30:41.104Z,87.95
2017-11-07T09:31:51.632Z,87.66
2017-11-07T09:33:01.785Z,88.13
2017-11-07T09:34:12.241Z,88.33
2017-11-07T09:35:22.732Z,87.66
2017-11-07T09:36:33.214Z,87.28
2017-11-07T09:37:43.703Z,87.19
2017-11-07T09:38:53.847Z,88.13
2017-11-07T09:40:04.621Z,87.95
2017-11-07T09:41:14.735Z,88.09
2017-11-07T09:42:25.246Z,87.71
2017-11-07T09:43:35.715Z,87.81
2017-11-07T09:44:46.172Z,87.9
2017-11-07T09:45:56.612Z,88.13
2017-11-07T09:47:07.065Z,88.33
2017-11-07T09:48:17.538Z,88.13
2017-11-07T09:49:28.027Z,88.52
2017-11-07T09:50:38.488Z,87.95
2017-11-07T09:51:49.685Z,87.95
2017-11-07T09:53:00.165Z,87.95
2017-11-07T09:54:10.605Z,88.13
2017-11-07T09:55:21.153Z,87.76
2017-11-07T09:56:31.286Z,87.85
2017-11-07T09:57:41.632Z,88.23
2017-11-07T09:58:52.298Z,87.57
2017-11-07T10:00:02.838Z,87.28
2017-11-07T10:01:13.290Z,87.38
2017-11-07T10:02:23.432Z,87.47
2017-11-07T10:03:33.872Z,86.71
2017-11-07T10:04:44.390Z,86.99
2017-11-07T10:05:54.949Z,86.9
2017-11-07T10:07:05.400Z,86.43
2017-11-07T10:08:15.991Z,86.99
2017-11-07T10:09:26.479Z,86.99
2017-11-07T10:10:36.993Z,86.9
2017-11-07T10:11:47.459Z,86.8
2017-11-07T10:12:57.577Z,86.66
2017-11-07T10:14:08.150Z,86.8
2017-11-07T10:15:18.593Z,86.8
2017-11-07T10:16:28.711Z,86.33
2017-11-07T10:17:39.384Z,86.14
2017-11-07T10:18:50.008Z,86.61
2017-11-07T10:20:00.276Z,86.24
2017-11-07T10:21:10.711Z,86.18
2017-11-07T10:22:21.212Z,86.76
2017-11-07T10:23:31.676Z,86.33
2017-11-07T10:24:41.808Z,86.14
2017-11-07T10:25:52.311Z,86.52
2017-11-07T10:27:02.982Z,86.24
2017-11-07T10:28:13.439Z,86.52
2017-11-07T10:29:23.900Z,86.33
2017-11-07T10:30:34.258Z,86.52
2017-11-07T10:31:44.735Z,86.52
2017-11-07T10:32:55.217Z,86.38
2017-11-07T10:34:05.362Z,86.66
2017-11-07T10:35:15.818Z,86.47
2017-11-07T10:36:26.315Z,86.57
2017-11-07T10:37:36.765Z,85.9
2017-11-07T10:38:47.297Z,85.9
2017-11-07T10:39:57.838Z,86.38
2017-11-07T10:41:08.549Z,85.52
2017-11-07T10:42:18.987Z,86.18
2017-11-07T10:43:29.556Z,85.52
2017-11-07T10:44:40.053Z,85.71
2017-11-07T10:45:50.076Z,85.24
2017-11-07T10:47:00.522Z,85.24
2017-11-07T10:48:10.639Z,85.37
2017-11-07T10:49:20.712Z,85.28
2017-11-07T10:50:31.213Z,85.04
2017-11-07T10:51:41.658Z,84.76
2017-11-07T10:52:52.133Z,84.56
2017-11-07T10:54:02.670Z,84.76
2017-11-07T10:55:12.517Z,85.24
2017-11-07T10:56:22.973Z,85.14
2017-11-07T10:57:33.456Z,84.76
2017-11-07T10:58:43.972Z,84.95
2017-11-07T10:59:54.471Z,84.56
2017-11-07T11:01:04.916Z,85.24
2017-11-07T11:02:15.388Z,84.66
2017-11-07T11:03:25.656Z,85.04
2017-11-07T11:04:36.102Z,85.04
2017-11-07T11:05:46.465Z,84.47
2017-11-07T11:06:56.932Z,84.66
2017-11-07T11:08:07.486Z,84.95
2017-11-07T11:09:17.944Z,84.7
2017-11-07T11:10:28.499Z,84.56
2017-11-07T11:11:38.954Z,84.61
2017-11-07T11:12:49.497Z,84.61
2017-11-07T11:13:59.938Z,84.52
2017-11-07T11:15:10.397Z,84.52
2017-11-07T11:16:20.852Z,84.42
2017-11-07T11:17:31.332Z,84.33
2017-11-07T11:18:41.770Z,84.7
2017-11-07T11:19:52.292Z,84.8
2017-11-07T11:21:03.738Z,84.33
2017-11-07T11:22:14.202Z,84.23
2017-11-07T11:23:24.639Z,84.33
2017-11-07T11:24:34.769Z,84.23
2017-11-07T11:25:45.690Z,84.23
2017-11-07T11:26:56.157Z,84.61
2017-11-07T11:28:06.326Z,84.7
2017-11-07T11:29:17.023Z,84.8
2017-11-07T11:30:27.492Z,84.7
2017-11-07T11:31:37.925Z,84.7
2017-11-07T11:32:48.358Z,84.42
2017-11-07T11:33:58.479Z,84.7
2017-11-07T11:35:09.026Z,84.8
2017-11-07T11:36:19.621Z,84.42
2017-11-07T11:37:29.738Z,84.52
2017-11-07T11:38:40.196Z,84.33
2017-11-07T11:39:50.342Z,84.7
2017-11-07T11:41:00.822Z,84.28
2017-11-07T11:42:11.391Z,84.66
2017-11-07T11:43:21.931Z,84.28
2017-11-07T11:44:32.360Z,84.19
2017-11-07T11:45:42.795Z,84.56
2017-11-07T11:46:53.260Z,84.38
2017-11-07T11:48:03.801Z,84.47
2017-11-07T11:49:14.302Z,84.66
2017-11-07T11:50:24.836Z,84.66
2017-11-07T11:51:35.344Z,84.56
2017-11-07T11:52:45.768Z,84.66
2017-11-07T11:53:55.909Z,84.19
2017-11-07T11:55:06.371Z,84.7
2017-11-07T11:56:16.958Z,84.61
2017-11-07T11:57:27.493Z,84.47
2017-11-07T11:58:37.967Z,84.61
2017-11-07T11:59:48.530Z,84.99
2017-11-07T12:00:58.981Z,84.61
2017-11-07T12:02:09.509Z,84.7
2017-11-07T12:03:19.976Z,84.8
2017-11-07T12:04:30.456Z,85.08
2017-11-07T12:05:40.897Z,84.52
2017-11-07T12:06:51.108Z,85.08
2017-11-07T12:08:01.569Z,84.8
2017-11-07T12:09:12.272Z,84.23
2017-11-07T12:10:22.719Z,84.61
2017-11-07T12:11:33.304Z,84.52
2017-11-07T12:12:43.919Z,84.04
2017-11-07T12:13:54.363Z,84.61
2017-11-07T12:15:05.086Z,84.52
2017-11-07T12:16:15.538Z,84.61
2017-11-07T12:17:26.137Z,84.52
2017-11-07T12:18:36.656Z,84.61
2017-11-07T12:19:47.142Z,84.52
2017-11-07T12:20:57.595Z,84.52
2017-11-07T12:22:08.047Z,84.7
2017-11-07T12:23:18.525Z,84.42
2017-11-07T12:24:29.143Z,84.8
2017-11-07T12:25:39.627Z,84.42
2017-11-07T12:26:50.328Z,84.61
2017-11-07T12:28:00.893Z,84.7
2017-11-07T12:29:11.373Z,84.7
2017-11-07T12:30:21.748Z,84.42
2017-11-07T12:31:32.412Z,84.33
2017-11-07T12:32:42.886Z,84.52
2017-11-07T12:33:53.422Z,84.23
2017-11-07T12:35:03.542Z,84.33
2017-11-07T12:36:13.975Z,84.7
2017-11-07T12:37:24.244Z,84.7
2017-11-07T12:38:34.724Z,84.52
2017-11-07T12:39:45.180Z,84.8
2017-11-07T12:40:55.634Z,84.42
2017-11-07T12:42:05.678Z,84.7
2017-11-07T12:43:16.117Z,84.42
2017-11-07T12:44:26.257Z,84.61
2017-11-07T12:45:36.918Z,84.33
2017-11-07T12:46:47.482Z,84.33
2017-11-07T12:47:58.159Z,84.65
2017-11-07T12:49:08.638Z,84.17
2017-11-07T12:50:19.108Z,84.08
2017-11-07T12:51:29.660Z,83.51
2017-11-07T12:52:40.148Z,83.7
2017-11-07T12:53:50.609Z,83.22
2017-11-07T12:55:01.184Z,83.32
2017-11-07T12:56:12.611Z,83.51
2017-11-07T12:57:22.653Z,83.89
2017-11-07T12:58:33.106Z,83.8
2017-11-07T12:59:43.905Z,83.8
2017-11-07T13:00:54.373Z,83.7
2017-11-07T13:02:04.825Z,83.89
2017-11-07T13:03:15.273Z,83.7
2017-11-07T13:04:25.755Z,83.89
2017-11-07T13:05:37.179Z,83.7
2017-11-07T13:06:47.356Z,83.41
2017-11-07T13:07:57.794Z,83.65
2017-11-07T13:09:08.267Z,83.41
2017-11-07T13:10:18.719Z,83.13
2017-11-07T13:11:30.193Z,83.7
2017-11-07T13:12:40.326Z,83.47
2017-11-07T13:13:50.326Z,84.46
2017-11-07T13:15:00.783Z,83.89
2017-11-07T13:16:10.799Z,83.8
2017-11-07T13:17:21.419Z,83.94
2017-11-07T13:18:31.925Z,83.98
2017-11-07T13:19:42.237Z,83.7
2017-11-07T13:20:52.696Z,83.8
2017-11-07T13:22:03.286Z,83.89
2017-11-07T13:23:13.740Z,83.7
2017-11-07T13:24:24.190Z,83.7
2017-11-07T13:25:34.634Z,83.8
2017-11-07T13:26:45.142Z,83.32
2017-11-07T13:27:55.336Z,83.22
2017-11-07T13:29:05.796Z,83.32
2017-11-07T13:30:16.232Z,83.8
2017-11-07T13:31:26.667Z,83.32
2017-11-07T13:32:37.163Z,84.08
2017-11-07T13:33:47.633Z,83.41
2017-11-07T13:34:58.103Z,83.8
2017-11-07T13:36:08.574Z,83.89
2017-11-07T13:37:19.033Z,83.03
2017-11-07T13:38:29.493Z,83.03
2017-11-07T13:39:39.633Z,83.41
2017-11-07T13:40:49.797Z,83.22
2017-11-07T13:42:00.373Z,83.32
2017-11-07T13:43:10.825Z,83.51
2017-11-07T13:44:21.326Z,83.41
2017-11-07T13:45:31.814Z,83.51
2017-11-07T13:46:42.276Z,83.03
2017-11-07T13:47:52.718Z,83.41
2017-11-07T13:49:03.174Z,83.51
2017-11-07T13:50:13.010Z,83.89
2017-11-07T13:51:23.763Z,83.32
2017-11-07T13:52:34.315Z,83.8
2017-11-07T13:53:44.766Z,83.8
2017-11-07T13:54:55.264Z,83.61
2017-11-07T13:56:05.959Z,83.41
2017-11-07T13:57:16.468Z,83.41
2017-11-07T13:58:27.119Z,83.41
2017-11-07T13:59:37.578Z,83.89
2017-11-07T14:00:48.149Z,83.51
2017-11-07T14:01:58.600Z,83.8
2017-11-07T14:03:09.198Z,83.89
2017-11-07T14:04:19.848Z,83.41
2017-11-07T14:05:30.297Z,83.85
2017-11-07T14:06:40.873Z,84.17
2017-11-07T14:07:51.309Z,84.17
2017-11-07T14:09:01.778Z,84.08
2017-11-07T14:10:12.252Z,84.46
2017-11-07T14:11:22.375Z,84.17
2017-11-07T14:12:33.001Z,84.17
2017-11-07T14:13:43.492Z,83.98
2017-11-07T14:14:53.926Z,84.27
2017-11-07T14:16:04.389Z,84.27
2017-11-07T14:17:14.862Z,84.17
2017-11-07T14:18:25.567Z,84.46
2017-11-07T14:19:36.024Z,84.56
2017-11-07T14:20:46.563Z,84.27
2017-11-07T14:21:57.015Z,84.17
2017-11-07T14:23:07.476Z,84.08
2017-11-07T14:24:17.518Z,84.08
2017-11-07T14:25:27.963Z,84.17
2017-11-07T14:26:38.551Z,84.36
2017-11-07T14:27:49.026Z,84.46
2017-11-07T14:28:59.761Z,84.46
2017-11-07T14:30:10.226Z,84.17
2017-11-07T14:31:20.667Z,84.17
2017-11-07T14:32:31.139Z,83.89
2017-11-07T14:33:41.600Z,84.08
2017-11-07T14:34:52.093Z,84.17
2017-11-07T14:36:02.617Z,84.17
2017-11-07T14:37:13.075Z,84.46
2017-11-07T14:38:23.540Z,84.46
2017-11-07T14:39:34.036Z,84.27
2017-11-07T14:40:44.509Z,84.42
2017-11-07T14:41:54.641Z,84.61
2017-11-07T14:43:05.097Z,84.7
2017-11-07T14:44:16.537Z,84.52
2017-11-07T14:45:26.979Z,84.61
2017-11-07T14:46:37.149Z,84.42
2017-11-07T14:47:47.858Z,84.89
2017-11-07T14:48:58.061Z,84.7
2017-11-07T14:50:08.520Z,84.7
2017-11-07T14:51:19.069Z,84.7
2017-11-07T14:52:29.520Z,84.7
2017-11-07T14:53:40.021Z,84.61
2017-11-07T14:54:50.471Z,84.42
2017-11-07T14:56:00.970Z,85.18
2017-11-07T14:57:11.107Z,85.18
2017-11-07T14:58:21.591Z,85.28
2017-11-07T14:59:32.078Z,84.99
2017-11-07T15:00:42.798Z,85.37
2017-11-07T15:01:52.979Z,85.37
2017-11-07T15:03:03.041Z,85.47
2017-11-07T15:04:13.480Z,85.18
2017-11-07T15:05:23.980Z,85.28
2017-11-07T15:06:34.125Z,85.28
2017-11-07T15:07:44.580Z,85.47
2017-11-07T15:08:55.049Z,85.28
2017-11-07T15:10:05.526Z,85.28
2017-11-07T15:11:15.978Z,85.47
2017-11-07T15:12:26.592Z,85.66